sensor_id;sensor_type;location;lat;lon;timestamp;pressure;altitude;pressure_sealevel;temperature
43292;BMP280;28754;47.700;7.924;2022-07-06T00:00:24;92035.38;;;20.25
43292;BMP280;28754;47.700;7.924;2022-07-06T00:03:11;92044.06;;;20.21
43292;BMP280;28754;47.700;7.924;2022-07-06T00:05:58;92042.06;;;20.18
43292;BMP280;28754;47.700;7.924;2022-07-06T00:08:48;92046.03;;;20.15
43292;BMP280;28754;47.700;7.924;2022-07-06T00:11:35;92042.50;;;20.11
43292;BMP280;28754;47.700;7.924;2022-07-06T00:14:24;92040.97;;;20.10
43292;BMP280;28754;47.700;7.924;2022-07-06T00:17:11;92040.50;;;20.08
43292;BMP280;28754;47.700;7.924;2022-07-06T00:19:58;92036.19;;;20.04
43292;BMP280;28754;47.700;7.924;2022-07-06T00:22:45;92040.59;;;20.03
43292;BMP280;28754;47.700;7.924;2022-07-06T00:25:32;92039.69;;;19.99
43292;BMP280;28754;47.700;7.924;2022-07-06T00:28:19;92043.63;;;19.97
43292;BMP280;28754;47.700;7.924;2022-07-06T00:31:05;92038.28;;;19.94
43292;BMP280;28754;47.700;7.924;2022-07-06T00:33:52;92032.13;;;19.90
43292;BMP280;28754;47.700;7.924;2022-07-06T00:36:39;92022.34;;;19.87
43292;BMP280;28754;47.700;7.924;2022-07-06T00:39:26;92026.59;;;19.83
43292;BMP280;28754;47.700;7.924;2022-07-06T00:42:15;92035.44;;;19.82
43292;BMP280;28754;47.700;7.924;2022-07-06T00:45:02;92033.16;;;19.80
43292;BMP280;28754;47.700;7.924;2022-07-06T00:47:49;92024.06;;;19.78
43292;BMP280;28754;47.700;7.924;2022-07-06T00:50:36;92026.50;;;19.74
43292;BMP280;28754;47.700;7.924;2022-07-06T00:53:23;92030.47;;;19.72
43292;BMP280;28754;47.700;7.924;2022-07-06T00:56:10;92019.41;;;19.66
43292;BMP280;28754;47.700;7.924;2022-07-06T00:59:00;92020.47;;;19.65
43292;BMP280;28754;47.700;7.924;2022-07-06T01:01:46;92013.25;;;19.62
43292;BMP280;28754;47.700;7.924;2022-07-06T01:04:33;92017.69;;;19.62
43292;BMP280;28754;47.700;7.924;2022-07-06T01:07:20;92019.34;;;19.58
43292;BMP280;28754;47.700;7.924;2022-07-06T01:10:11;92010.13;;;19.52
43292;BMP280;28754;47.700;7.924;2022-07-06T01:12:58;92014.06;;;19.50
43292;BMP280;28754;47.700;7.924;2022-07-06T01:15:45;92016.78;;;19.45
43292;BMP280;28754;47.700;7.924;2022-07-06T01:18:32;91999.22;;;19.42
43292;BMP280;28754;47.700;7.924;2022-07-06T01:21:19;92005.16;;;19.42
43292;BMP280;28754;47.700;7.924;2022-07-06T01:24:06;92011.41;;;19.41
43292;BMP280;28754;47.700;7.924;2022-07-06T01:26:52;91996.72;;;19.37
43292;BMP280;28754;47.700;7.924;2022-07-06T01:29:39;91998.06;;;19.34
43292;BMP280;28754;47.700;7.924;2022-07-06T01:32:26;91995.19;;;19.36
43292;BMP280;28754;47.700;7.924;2022-07-06T01:35:15;91993.63;;;19.35
43292;BMP280;28754;47.700;7.924;2022-07-06T01:38:02;91999.16;;;19.33
43292;BMP280;28754;47.700;7.924;2022-07-06T01:40:48;92000.94;;;19.33
43292;BMP280;28754;47.700;7.924;2022-07-06T01:43:35;91992.59;;;19.36
43292;BMP280;28754;47.700;7.924;2022-07-06T01:46:22;91993.06;;;19.38
43292;BMP280;28754;47.700;7.924;2022-07-06T01:49:09;91993.22;;;19.41
43292;BMP280;28754;47.700;7.924;2022-07-06T01:51:56;91989.28;;;19.44
43292;BMP280;28754;47.700;7.924;2022-07-06T01:54:43;91994.19;;;19.45
43292;BMP280;28754;47.700;7.924;2022-07-06T01:57:30;91988.63;;;19.38
43292;BMP280;28754;47.700;7.924;2022-07-06T02:00:17;91987.28;;;19.41
43292;BMP280;28754;47.700;7.924;2022-07-06T02:03:09;91982.69;;;19.38
43292;BMP280;28754;47.700;7.924;2022-07-06T02:05:58;91983.44;;;19.38
43292;BMP280;28754;47.700;7.924;2022-07-06T02:08:45;91987.09;;;19.37
43292;BMP280;28754;47.700;7.924;2022-07-06T02:11:32;91987.69;;;19.34
43292;BMP280;28754;47.700;7.924;2022-07-06T02:14:18;91985.09;;;19.34
43292;BMP280;28754;47.700;7.924;2022-07-06T02:17:05;91993.00;;;19.29
43292;BMP280;28754;47.700;7.924;2022-07-06T02:19:54;91992.53;;;19.27
43292;BMP280;28754;47.700;7.924;2022-07-06T02:22:41;91981.66;;;19.26
43292;BMP280;28754;47.700;7.924;2022-07-06T02:25:28;91985.78;;;19.26
43292;BMP280;28754;47.700;7.924;2022-07-06T02:28:16;91983.50;;;19.25
43292;BMP280;28754;47.700;7.924;2022-07-06T02:31:03;91983.66;;;19.28
43292;BMP280;28754;47.700;7.924;2022-07-06T02:33:50;91985.50;;;19.28
43292;BMP280;28754;47.700;7.924;2022-07-06T02:36:37;91983.97;;;19.27
43292;BMP280;28754;47.700;7.924;2022-07-06T02:39:23;91991.44;;;19.28
43292;BMP280;28754;47.700;7.924;2022-07-06T02:42:10;91980.59;;;19.26
43292;BMP280;28754;47.700;7.924;2022-07-06T02:44:57;91987.91;;;19.25
43292;BMP280;28754;47.700;7.924;2022-07-06T02:47:44;91994.09;;;19.15
43292;BMP280;28754;47.700;7.924;2022-07-06T02:50:30;92003.84;;;19.10
43292;BMP280;28754;47.700;7.924;2022-07-06T02:53:18;91996.34;;;19.08
43292;BMP280;28754;47.700;7.924;2022-07-06T02:56:08;92001.25;;;19.10
43292;BMP280;28754;47.700;7.924;2022-07-06T02:58:56;92004.28;;;19.12
43292;BMP280;28754;47.700;7.924;2022-07-06T03:01:42;92009.47;;;19.12
43292;BMP280;28754;47.700;7.924;2022-07-06T03:04:29;92003.84;;;19.10
43292;BMP280;28754;47.700;7.924;2022-07-06T03:07:16;92012.66;;;19.09
43292;BMP280;28754;47.700;7.924;2022-07-06T03:10:05;92011.44;;;19.06
43292;BMP280;28754;47.700;7.924;2022-07-06T03:12:52;92018.34;;;19.11
43292;BMP280;28754;47.700;7.924;2022-07-06T03:15:38;92014.66;;;19.12
43292;BMP280;28754;47.700;7.924;2022-07-06T03:18:25;92008.72;;;19.11
43292;BMP280;28754;47.700;7.924;2022-07-06T03:21:12;92010.06;;;19.09
43292;BMP280;28754;47.700;7.924;2022-07-06T03:23:59;92004.13;;;19.08
43292;BMP280;28754;47.700;7.924;2022-07-06T03:26:46;92014.31;;;19.05
43292;BMP280;28754;47.700;7.924;2022-07-06T03:29:34;92004.50;;;19.02
43292;BMP280;28754;47.700;7.924;2022-07-06T03:32:21;91995.28;;;18.96
43292;BMP280;28754;47.700;7.924;2022-07-06T03:35:08;91994.63;;;18.91
43292;BMP280;28754;47.700;7.924;2022-07-06T03:37:56;91999.88;;;18.86
43292;BMP280;28754;47.700;7.924;2022-07-06T03:40:45;91996.06;;;18.83
43292;BMP280;28754;47.700;7.924;2022-07-06T03:43:32;91994.06;;;18.80
43292;BMP280;28754;47.700;7.924;2022-07-06T03:46:19;91996.66;;;18.80
43292;BMP280;28754;47.700;7.924;2022-07-06T03:49:06;92004.44;;;18.80
43292;BMP280;28754;47.700;7.924;2022-07-06T03:51:53;92001.84;;;18.80
43292;BMP280;28754;47.700;7.924;2022-07-06T03:54:41;92000.28;;;18.79
43292;BMP280;28754;47.700;7.924;2022-07-06T03:57:29;91991.47;;;18.80
43292;BMP280;28754;47.700;7.924;2022-07-06T04:00:23;92001.34;;;18.78
43292;BMP280;28754;47.700;7.924;2022-07-06T04:03:18;92014.34;;;18.78
43292;BMP280;28754;47.700;7.924;2022-07-06T04:06:09;92007.31;;;18.79
43292;BMP280;28754;47.700;7.924;2022-07-06T04:08:56;92010.97;;;18.78
43292;BMP280;28754;47.700;7.924;2022-07-06T04:11:43;92008.94;;;18.75
43292;BMP280;28754;47.700;7.924;2022-07-06T04:14:30;92010.00;;;18.74
43292;BMP280;28754;47.700;7.924;2022-07-06T04:17:17;92011.38;;;18.71
43292;BMP280;28754;47.700;7.924;2022-07-06T04:20:25;92003.38;;;18.68
43292;BMP280;28754;47.700;7.924;2022-07-06T04:23:12;92010.41;;;18.67
43292;BMP280;28754;47.700;7.924;2022-07-06T04:26:00;92010.41;;;18.67
43292;BMP280;28754;47.700;7.924;2022-07-06T04:28:49;92015.59;;;18.67
43292;BMP280;28754;47.700;7.924;2022-07-06T04:31:35;91998.97;;;18.68
43292;BMP280;28754;47.700;7.924;2022-07-06T04:34:22;92007.22;;;18.70
43292;BMP280;28754;47.700;7.924;2022-07-06T04:37:10;92005.00;;;18.77
43292;BMP280;28754;47.700;7.924;2022-07-06T04:39:57;92002.31;;;18.82
43292;BMP280;28754;47.700;7.924;2022-07-06T04:42:44;92016.41;;;18.90
43292;BMP280;28754;47.700;7.924;2022-07-06T04:45:31;92005.69;;;18.96
43292;BMP280;28754;47.700;7.924;2022-07-06T04:48:19;92007.22;;;18.97
43292;BMP280;28754;47.700;7.924;2022-07-06T04:51:06;92007.88;;;19.02
43292;BMP280;28754;47.700;7.924;2022-07-06T04:53:53;92006.50;;;19.05
43292;BMP280;28754;47.700;7.924;2022-07-06T04:56:41;92007.94;;;19.11
43292;BMP280;28754;47.700;7.924;2022-07-06T04:59:28;92010.25;;;19.12
43292;BMP280;28754;47.700;7.924;2022-07-06T05:02:15;92007.34;;;19.14
43292;BMP280;28754;47.700;7.924;2022-07-06T05:05:02;92015.16;;;19.14
43292;BMP280;28754;47.700;7.924;2022-07-06T05:07:49;92017.94;;;19.17
43292;BMP280;28754;47.700;7.924;2022-07-06T05:10:36;92019.66;;;19.22
43292;BMP280;28754;47.700;7.924;2022-07-06T05:13:23;92010.03;;;19.22
43292;BMP280;28754;47.700;7.924;2022-07-06T05:16:10;92015.13;;;19.27
43292;BMP280;28754;47.700;7.924;2022-07-06T05:18:56;92020.41;;;19.35
43292;BMP280;28754;47.700;7.924;2022-07-06T05:21:43;92017.84;;;19.44
43292;BMP280;28754;47.700;7.924;2022-07-06T05:24:30;92015.31;;;19.52
43292;BMP280;28754;47.700;7.924;2022-07-06T05:27:17;92012.91;;;19.56
43292;BMP280;28754;47.700;7.924;2022-07-06T05:30:07;92023.47;;;19.59
43292;BMP280;28754;47.700;7.924;2022-07-06T05:32:54;92019.69;;;19.65
43292;BMP280;28754;47.700;7.924;2022-07-06T05:35:41;92016.19;;;19.69
43292;BMP280;28754;47.700;7.924;2022-07-06T05:38:28;92020.53;;;19.74
43292;BMP280;28754;47.700;7.924;2022-07-06T05:41:15;92014.75;;;19.77
43292;BMP280;28754;47.700;7.924;2022-07-06T05:44:02;92014.47;;;19.78
43292;BMP280;28754;47.700;7.924;2022-07-06T05:46:50;92024.56;;;19.80
43292;BMP280;28754;47.700;7.924;2022-07-06T05:49:38;92025.03;;;19.82
43292;BMP280;28754;47.700;7.924;2022-07-06T05:53:05;92027.25;;;19.75
43292;BMP280;28754;47.700;7.924;2022-07-06T05:55:52;92017.16;;;19.73
43292;BMP280;28754;47.700;7.924;2022-07-06T05:58:40;92026.41;;;19.79
43292;BMP280;28754;47.700;7.924;2022-07-06T06:01:27;92026.59;;;19.83
43292;BMP280;28754;47.700;7.924;2022-07-06T06:04:25;92032.41;;;19.88
43292;BMP280;28754;47.700;7.924;2022-07-06T06:07:12;92037.50;;;19.93
43292;BMP280;28754;47.700;7.924;2022-07-06T06:09:58;92030.75;;;19.92
43292;BMP280;28754;47.700;7.924;2022-07-06T06:12:46;92035.19;;;19.92
43292;BMP280;28754;47.700;7.924;2022-07-06T06:15:32;92041.69;;;19.81
43292;BMP280;28754;47.700;7.924;2022-07-06T06:18:19;92036.69;;;19.71
43292;BMP280;28754;47.700;7.924;2022-07-06T06:21:06;92040.25;;;19.75
43292;BMP280;28754;47.700;7.924;2022-07-06T06:23:53;92047.06;;;19.84
43292;BMP280;28754;47.700;7.924;2022-07-06T06:26:39;92032.00;;;19.95
43292;BMP280;28754;47.700;7.924;2022-07-06T06:29:26;92035.88;;;20.05
43292;BMP280;28754;47.700;7.924;2022-07-06T06:32:13;92039.75;;;20.16
43292;BMP280;28754;47.700;7.924;2022-07-06T06:35:00;92038.75;;;20.26
43292;BMP280;28754;47.700;7.924;2022-07-06T06:37:47;92035.72;;;20.32
43292;BMP280;28754;47.700;7.924;2022-07-06T06:40:34;92035.13;;;20.35
43292;BMP280;28754;47.700;7.924;2022-07-06T06:43:21;92032.06;;;20.33
43292;BMP280;28754;47.700;7.924;2022-07-06T06:46:36;92032.06;;;20.33
43292;BMP280;28754;47.700;7.924;2022-07-06T06:49:24;92024.38;;;20.28
43292;BMP280;28754;47.700;7.924;2022-07-06T06:52:11;92036.91;;;20.26
43292;BMP280;28754;47.700;7.924;2022-07-06T06:54:57;92040.00;;;20.28
43292;BMP280;28754;47.700;7.924;2022-07-06T06:57:44;92039.84;;;20.33
43292;BMP280;28754;47.700;7.924;2022-07-06T07:00:31;92030.06;;;20.30
43292;BMP280;28754;47.700;7.924;2022-07-06T07:03:18;92032.66;;;20.30
43292;BMP280;28754;47.700;7.924;2022-07-06T07:06:05;92036.50;;;20.32
43292;BMP280;28754;47.700;7.924;2022-07-06T07:08:51;92038.38;;;20.40
43292;BMP280;28754;47.700;7.924;2022-07-06T07:11:38;92027.41;;;20.52
43292;BMP280;28754;47.700;7.924;2022-07-06T07:14:25;92023.19;;;20.64
43292;BMP280;28754;47.700;7.924;2022-07-06T07:17:14;92022.31;;;20.77
43292;BMP280;28754;47.700;7.924;2022-07-06T07:20:01;92021.25;;;20.86
43292;BMP280;28754;47.700;7.924;2022-07-06T07:22:48;92027.41;;;20.90
43292;BMP280;28754;47.700;7.924;2022-07-06T07:25:34;92026.63;;;20.90
43292;BMP280;28754;47.700;7.924;2022-07-06T07:28:21;92018.50;;;20.91
43292;BMP280;28754;47.700;7.924;2022-07-06T07:31:08;92031.06;;;20.89
43292;BMP280;28754;47.700;7.924;2022-07-06T07:33:54;92025.53;;;20.82
43292;BMP280;28754;47.700;7.924;2022-07-06T07:36:43;92028.22;;;20.61
43292;BMP280;28754;47.700;7.924;2022-07-06T07:39:30;92033.50;;;20.47
43292;BMP280;28754;47.700;7.924;2022-07-06T07:42:16;92030.25;;;20.42
43292;BMP280;28754;47.700;7.924;2022-07-06T07:45:04;92036.53;;;20.41
43292;BMP280;28754;47.700;7.924;2022-07-06T07:47:50;92041.44;;;20.42
43292;BMP280;28754;47.700;7.924;2022-07-06T07:50:37;92038.84;;;20.51
43292;BMP280;28754;47.700;7.924;2022-07-06T07:53:24;92043.94;;;20.56
43292;BMP280;28754;47.700;7.924;2022-07-06T07:56:11;92050.38;;;20.58
43292;BMP280;28754;47.700;7.924;2022-07-06T07:58:57;92038.91;;;20.59
43292;BMP280;28754;47.700;7.924;2022-07-06T08:01:49;92048.53;;;20.59
43292;BMP280;28754;47.700;7.924;2022-07-06T08:04:35;92045.28;;;20.45
43292;BMP280;28754;47.700;7.924;2022-07-06T08:07:22;92038.19;;;20.37
43292;BMP280;28754;47.700;7.924;2022-07-06T08:10:10;92045.06;;;20.33
43292;BMP280;28754;47.700;7.924;2022-07-06T08:12:56;92062.31;;;20.29
43292;BMP280;28754;47.700;7.924;2022-07-06T08:15:43;92060.34;;;20.26
43292;BMP280;28754;47.700;7.924;2022-07-06T08:18:30;92070.06;;;20.21
43292;BMP280;28754;47.700;7.924;2022-07-06T08:21:17;92058.91;;;20.20
43292;BMP280;28754;47.700;7.924;2022-07-06T08:24:04;92064.72;;;20.17
43292;BMP280;28754;47.700;7.924;2022-07-06T08:26:51;92056.78;;;20.22
43292;BMP280;28754;47.700;7.924;2022-07-06T08:29:38;92058.00;;;20.25
43292;BMP280;28754;47.700;7.924;2022-07-06T08:32:24;92053.91;;;20.24
43292;BMP280;28754;47.700;7.924;2022-07-06T08:35:11;92056.31;;;20.20
43292;BMP280;28754;47.700;7.924;2022-07-06T08:37:58;92065.19;;;20.19
43292;BMP280;28754;47.700;7.924;2022-07-06T08:40:48;92062.59;;;20.19
43292;BMP280;28754;47.700;7.924;2022-07-06T08:43:35;92051.59;;;20.22
43292;BMP280;28754;47.700;7.924;2022-07-06T08:46:22;92061.38;;;20.25
43292;BMP280;28754;47.700;7.924;2022-07-06T08:49:15;92065.53;;;20.26
43292;BMP280;28754;47.700;7.924;2022-07-06T08:52:05;92061.56;;;20.29
43292;BMP280;28754;47.700;7.924;2022-07-06T08:54:52;92060.72;;;20.41
43292;BMP280;28754;47.700;7.924;2022-07-06T08:57:38;92065.34;;;20.53
43292;BMP280;28754;47.700;7.924;2022-07-06T09:00:28;92070.16;;;20.59
43292;BMP280;28754;47.700;7.924;2022-07-06T09:03:14;92066.81;;;20.67
43292;BMP280;28754;47.700;7.924;2022-07-06T09:06:02;92077.75;;;20.77
43292;BMP280;28754;47.700;7.924;2022-07-06T09:08:52;92079.16;;;20.83
43292;BMP280;28754;47.700;7.924;2022-07-06T09:11:39;92093.28;;;20.99
43292;BMP280;28754;47.700;7.924;2022-07-06T09:14:27;92096.84;;;21.11
43292;BMP280;28754;47.700;7.924;2022-07-06T09:17:13;92086.56;;;21.15
43292;BMP280;28754;47.700;7.924;2022-07-06T09:20:00;92089.50;;;21.13
43292;BMP280;28754;47.700;7.924;2022-07-06T09:22:47;92095.78;;;21.21
43292;BMP280;28754;47.700;7.924;2022-07-06T09:25:35;92102.25;;;21.32
43292;BMP280;28754;47.700;7.924;2022-07-06T09:28:21;92102.09;;;21.28
43292;BMP280;28754;47.700;7.924;2022-07-06T09:31:09;92101.75;;;21.21
43292;BMP280;28754;47.700;7.924;2022-07-06T09:34:08;92112.97;;;21.22
43292;BMP280;28754;47.700;7.924;2022-07-06T09:36:57;92120.94;;;21.33
43292;BMP280;28754;47.700;7.924;2022-07-06T09:39:43;92116.09;;;21.49
43292;BMP280;28754;47.700;7.924;2022-07-06T09:42:32;92110.78;;;21.62
43292;BMP280;28754;47.700;7.924;2022-07-06T09:45:21;92117.69;;;21.75
43292;BMP280;28754;47.700;7.924;2022-07-06T09:48:14;92120.31;;;21.75
43292;BMP280;28754;47.700;7.924;2022-07-06T09:51:01;92119.69;;;21.78
43292;BMP280;28754;47.700;7.924;2022-07-06T09:53:53;92116.44;;;21.81
43292;BMP280;28754;47.700;7.924;2022-07-06T09:56:47;92118.16;;;21.69
43292;BMP280;28754;47.700;7.924;2022-07-06T09:59:39;92127.19;;;21.71
43292;BMP280;28754;47.700;7.924;2022-07-06T10:02:27;92124.59;;;21.71
43292;BMP280;28754;47.700;7.924;2022-07-06T10:05:17;92118.44;;;21.59
43292;BMP280;28754;47.700;7.924;2022-07-06T10:08:06;92114.13;;;21.54
43292;BMP280;28754;47.700;7.924;2022-07-06T10:10:55;92122.72;;;21.55
43292;BMP280;28754;47.700;7.924;2022-07-06T10:13:45;92121.66;;;21.56
43292;BMP280;28754;47.700;7.924;2022-07-06T10:16:38;92118.75;;;21.66
43292;BMP280;28754;47.700;7.924;2022-07-06T10:19:28;92107.72;;;21.85
43292;BMP280;28754;47.700;7.924;2022-07-06T10:22:17;92119.81;;;21.90
43292;BMP280;28754;47.700;7.924;2022-07-06T10:25:05;92122.44;;;21.98
43292;BMP280;28754;47.700;7.924;2022-07-06T10:27:53;92111.88;;;22.03
43292;BMP280;28754;47.700;7.924;2022-07-06T10:30:42;92128.88;;;22.09
43292;BMP280;28754;47.700;7.924;2022-07-06T10:33:30;92119.53;;;22.00
43292;BMP280;28754;47.700;7.924;2022-07-06T10:36:18;92116.16;;;21.91
43292;BMP280;28754;47.700;7.924;2022-07-06T10:39:04;92105.72;;;21.99
43292;BMP280;28754;47.700;7.924;2022-07-06T10:42:45;92122.75;;;21.88
43292;BMP280;28754;47.700;7.924;2022-07-06T10:48:19;92115.22;;;21.87
43292;BMP280;28754;47.700;7.924;2022-07-06T10:51:08;92114.47;;;22.03
43292;BMP280;28754;47.700;7.924;2022-07-06T10:54:04;92092.72;;;22.16
43292;BMP280;28754;47.700;7.924;2022-07-06T10:56:51;92101.75;;;22.18
43292;BMP280;28754;47.700;7.924;2022-07-06T10:59:38;92112.00;;;22.06
43292;BMP280;28754;47.700;7.924;2022-07-06T11:02:25;92100.50;;;21.91
43292;BMP280;28754;47.700;7.924;2022-07-06T11:05:41;92117.56;;;21.97
43292;BMP280;28754;47.700;7.924;2022-07-06T11:14:22;92098.53;;;22.21
43292;BMP280;28754;47.700;7.924;2022-07-06T11:17:11;92099.44;;;22.25
43292;BMP280;28754;47.700;7.924;2022-07-06T11:20:09;92093.09;;;22.43
43292;BMP280;28754;47.700;7.924;2022-07-06T11:22:56;92092.88;;;22.73
43292;BMP280;28754;47.700;7.924;2022-07-06T11:25:43;92088.50;;;23.02
43292;BMP280;28754;47.700;7.924;2022-07-06T11:28:31;92092.50;;;23.28
43292;BMP280;28754;47.700;7.924;2022-07-06T11:31:18;92085.56;;;23.32
43292;BMP280;28754;47.700;7.924;2022-07-06T11:34:07;92085.44;;;23.29
43292;BMP280;28754;47.700;7.924;2022-07-06T11:37:04;92082.25;;;23.23
43292;BMP280;28754;47.700;7.924;2022-07-06T11:39:51;92083.66;;;23.21
43292;BMP280;28754;47.700;7.924;2022-07-06T11:42:38;92089.38;;;23.14
43292;BMP280;28754;47.700;7.924;2022-07-06T11:45:27;92083.09;;;23.07
43292;BMP280;28754;47.700;7.924;2022-07-06T11:48:13;92078.66;;;23.08
43292;BMP280;28754;47.700;7.924;2022-07-06T11:51:03;92078.41;;;23.21
43292;BMP280;28754;47.700;7.924;2022-07-06T11:53:53;92078.00;;;23.39
43292;BMP280;28754;47.700;7.924;2022-07-06T11:56:55;92072.69;;;23.56
43292;BMP280;28754;47.700;7.924;2022-07-06T11:59:42;92073.28;;;23.61
43292;BMP280;28754;47.700;7.924;2022-07-06T12:02:32;92075.63;;;23.54
43292;BMP280;28754;47.700;7.924;2022-07-06T12:05:30;92073.91;;;23.58
43292;BMP280;28754;47.700;7.924;2022-07-06T12:08:17;92068.25;;;23.77
43292;BMP280;28754;47.700;7.924;2022-07-06T12:11:03;92075.19;;;23.93
43292;BMP280;28754;47.700;7.924;2022-07-06T12:13:56;92063.84;;;23.89
43292;BMP280;28754;47.700;7.924;2022-07-06T12:16:44;92063.44;;;23.99
43292;BMP280;28754;47.700;7.924;2022-07-06T12:19:31;92067.00;;;24.14
43292;BMP280;28754;47.700;7.924;2022-07-06T12:22:25;92072.63;;;24.25
43292;BMP280;28754;47.700;7.924;2022-07-06T12:25:35;92073.44;;;24.37
43292;BMP280;28754;47.700;7.924;2022-07-06T12:28:23;92060.56;;;24.44
43292;BMP280;28754;47.700;7.924;2022-07-06T12:31:11;92060.50;;;24.52
43292;BMP280;28754;47.700;7.924;2022-07-06T12:33:58;92064.75;;;24.57
43292;BMP280;28754;47.700;7.924;2022-07-06T12:36:56;92062.59;;;24.59
43292;BMP280;28754;47.700;7.924;2022-07-06T12:39:47;92061.69;;;24.55
43292;BMP280;28754;47.700;7.924;2022-07-06T12:42:46;92070.06;;;24.37
43292;BMP280;28754;47.700;7.924;2022-07-06T12:45:33;92061.75;;;24.35
43292;BMP280;28754;47.700;7.924;2022-07-06T12:48:20;92061.88;;;24.38
43292;BMP280;28754;47.700;7.924;2022-07-06T12:51:06;92054.91;;;24.42
43292;BMP280;28754;47.700;7.924;2022-07-06T12:54:12;92066.25;;;24.46
43292;BMP280;28754;47.700;7.924;2022-07-06T12:57:10;92052.97;;;24.51
43292;BMP280;28754;47.700;7.924;2022-07-06T13:00:00;92055.81;;;24.58
43292;BMP280;28754;47.700;7.924;2022-07-06T13:02:53;92051.03;;;24.60
43292;BMP280;28754;47.700;7.924;2022-07-06T13:05:49;92045.56;;;24.65
43292;BMP280;28754;47.700;7.924;2022-07-06T13:08:36;92048.63;;;24.67
43292;BMP280;28754;47.700;7.924;2022-07-06T13:11:22;92046.78;;;24.67
43292;BMP280;28754;47.700;7.924;2022-07-06T13:14:09;92052.91;;;24.71
43292;BMP280;28754;47.700;7.924;2022-07-06T13:16:56;92047.00;;;24.74
43292;BMP280;28754;47.700;7.924;2022-07-06T13:19:42;92047.00;;;24.74
43292;BMP280;28754;47.700;7.924;2022-07-06T13:22:29;92048.84;;;24.74
43292;BMP280;28754;47.700;7.924;2022-07-06T13:25:16;92041.00;;;24.74
43292;BMP280;28754;47.700;7.924;2022-07-06T13:28:02;92045.91;;;24.75
43292;BMP280;28754;47.700;7.924;2022-07-06T13:30:49;92045.78;;;24.72
43292;BMP280;28754;47.700;7.924;2022-07-06T13:33:36;92036.09;;;24.72
43292;BMP280;28754;47.700;7.924;2022-07-06T13:36:23;92034.34;;;24.64
43292;BMP280;28754;47.700;7.924;2022-07-06T13:39:10;92036.38;;;24.59
43292;BMP280;28754;47.700;7.924;2022-07-06T13:41:57;92034.34;;;24.64
43292;BMP280;28754;47.700;7.924;2022-07-06T13:44:44;92039.38;;;24.81
43292;BMP280;28754;47.700;7.924;2022-07-06T13:47:30;92040.28;;;24.85
43292;BMP280;28754;47.700;7.924;2022-07-06T13:50:17;92037.31;;;24.86
43292;BMP280;28754;47.700;7.924;2022-07-06T13:53:04;92029.78;;;24.85
43292;BMP280;28754;47.700;7.924;2022-07-06T13:55:51;92032.72;;;24.83
43292;BMP280;28754;47.700;7.924;2022-07-06T13:58:38;92037.09;;;24.80
43292;BMP280;28754;47.700;7.924;2022-07-06T14:01:25;92020.47;;;24.76
43292;BMP280;28754;47.700;7.924;2022-07-06T14:04:12;92029.66;;;24.82
43292;BMP280;28754;47.700;7.924;2022-07-06T14:06:58;92027.81;;;24.82
43292;BMP280;28754;47.700;7.924;2022-07-06T14:09:45;92026.47;;;24.76
43292;BMP280;28754;47.700;7.924;2022-07-06T14:12:33;92019.41;;;24.77
43292;BMP280;28754;47.700;7.924;2022-07-06T14:15:20;92019.84;;;24.79
43292;BMP280;28754;47.700;7.924;2022-07-06T14:18:06;92025.50;;;24.69
43292;BMP280;28754;47.700;7.924;2022-07-06T14:20:54;92020.06;;;24.62
43292;BMP280;28754;47.700;7.924;2022-07-06T14:23:40;92015.97;;;24.52
43292;BMP280;28754;47.700;7.924;2022-07-06T14:26:27;92009.53;;;24.50
43292;BMP280;28754;47.700;7.924;2022-07-06T14:29:14;92000.63;;;24.51
43292;BMP280;28754;47.700;7.924;2022-07-06T14:32:00;92015.44;;;24.59
43292;BMP280;28754;47.700;7.924;2022-07-06T14:34:47;92012.81;;;24.59
43292;BMP280;28754;47.700;7.924;2022-07-06T14:37:33;92006.72;;;24.55
43292;BMP280;28754;47.700;7.924;2022-07-06T14:40:20;92008.25;;;24.56
43292;BMP280;28754;47.700;7.924;2022-07-06T14:43:07;91999.94;;;24.54
43292;BMP280;28754;47.700;7.924;2022-07-06T14:45:54;92009.44;;;24.58
43292;BMP280;28754;47.700;7.924;2022-07-06T14:48:41;91999.72;;;24.59
43292;BMP280;28754;47.700;7.924;2022-07-06T14:51:28;92006.59;;;24.63
43292;BMP280;28754;47.700;7.924;2022-07-06T14:54:15;92004.56;;;24.69
43292;BMP280;28754;47.700;7.924;2022-07-06T14:57:02;92006.06;;;24.70
43292;BMP280;28754;47.700;7.924;2022-07-06T14:59:50;91994.06;;;24.69
43292;BMP280;28754;47.700;7.924;2022-07-06T15:02:37;91999.97;;;24.66
43292;BMP280;28754;47.700;7.924;2022-07-06T15:05:24;91997.56;;;24.61
43292;BMP280;28754;47.700;7.924;2022-07-06T15:08:10;91988.81;;;24.57
43292;BMP280;28754;47.700;7.924;2022-07-06T15:10:57;91993.59;;;24.55
43292;BMP280;28754;47.700;7.924;2022-07-06T15:13:44;91988.50;;;24.47
43292;BMP280;28754;47.700;7.924;2022-07-06T15:16:30;91989.88;;;24.44
43292;BMP280;28754;47.700;7.924;2022-07-06T15:19:18;91981.59;;;24.42
43292;BMP280;28754;47.700;7.924;2022-07-06T15:22:04;91962.50;;;24.42
43292;BMP280;28754;47.700;7.924;2022-07-06T15:24:51;91978.44;;;24.48
43292;BMP280;28754;47.700;7.924;2022-07-06T15:27:38;91971.47;;;24.52
43292;BMP280;28754;47.700;7.924;2022-07-06T15:30:24;91986.63;;;24.59
43292;BMP280;28754;47.700;7.924;2022-07-06T15:33:11;91981.66;;;24.66
43292;BMP280;28754;47.700;7.924;2022-07-06T15:35:58;91989.16;;;24.67
43292;BMP280;28754;47.700;7.924;2022-07-06T15:38:44;91986.88;;;24.66
43292;BMP280;28754;47.700;7.924;2022-07-06T15:41:32;91988.28;;;24.63
43292;BMP280;28754;47.700;7.924;2022-07-06T15:44:18;91983.69;;;24.60
43292;BMP280;28754;47.700;7.924;2022-07-06T15:47:06;91988.63;;;24.62
43292;BMP280;28754;47.700;7.924;2022-07-06T15:49:53;91979.78;;;24.66
43292;BMP280;28754;47.700;7.924;2022-07-06T15:52:40;91979.03;;;24.66
43292;BMP280;28754;47.700;7.924;2022-07-06T15:55:26;91973.78;;;24.66
43292;BMP280;28754;47.700;7.924;2022-07-06T15:58:14;91970.06;;;24.67
43292;BMP280;28754;47.700;7.924;2022-07-06T16:01:01;91962.97;;;24.67
43292;BMP280;28754;47.700;7.924;2022-07-06T16:03:48;91959.91;;;24.53
43292;BMP280;28754;47.700;7.924;2022-07-06T16:06:35;91959.22;;;24.33
43292;BMP280;28754;47.700;7.924;2022-07-06T16:09:22;91954.28;;;24.19
43292;BMP280;28754;47.700;7.924;2022-07-06T16:12:09;91944.88;;;24.07
43292;BMP280;28754;47.700;7.924;2022-07-06T16:14:56;91959.44;;;23.96
43292;BMP280;28754;47.700;7.924;2022-07-06T16:17:43;91958.34;;;23.85